sensor_id;sensor_type;location;lat;lon;timestamp;P1;durP1;ratioP1;P2;durP2;ratioP2
5147;SDS011;2592;48.140;7.614;2024-02-26T00:01:54;1.33;;;1.00;;
5147;SDS011;2592;48.140;7.614;2024-02-26T00:04:20;1.00;;;0.90;;
5147;SDS011;2592;48.140;7.614;2024-02-26T00:06:48;2.30;;;1.00;;
5147;SDS011;2592;48.140;7.614;2024-02-26T00:09:16;2.50;;;1.37;;
5147;SDS011;2592;48.140;7.614;2024-02-26T00:11:42;1.90;;;1.13;;
5147;SDS011;2592;48.140;7.614;2024-02-26T00:14:09;1.67;;;1.37;;
5147;SDS011;2592;48.140;7.614;2024-02-26T00:16:35;2.30;;;1.70;;
5147;SDS011;2592;48.140;7.614;2024-02-26T00:19:02;1.57;;;1.47;;
5147;SDS011;2592;48.140;7.614;2024-02-26T00:21:28;1.70;;;1.27;;
5147;SDS011;2592;48.140;7.614;2024-02-26T00:23:56;2.23;;;1.40;;
5147;SDS011;2592;48.140;7.614;2024-02-26T00:26:22;1.43;;;1.30;;
5147;SDS011;2592;48.140;7.614;2024-02-26T00:28:49;1.67;;;0.93;;
5147;SDS011;2592;48.140;7.614;2024-02-26T00:31:15;1.77;;;1.27;;
5147;SDS011;2592;48.140;7.614;2024-02-26T00:33:42;1.27;;;1.10;;
5147;SDS011;2592;48.140;7.614;2024-02-26T00:36:08;1.57;;;1.00;;
5147;SDS011;2592;48.140;7.614;2024-02-26T00:38:35;1.40;;;1.13;;
5147;SDS011;2592;48.140;7.614;2024-02-26T00:41:02;1.20;;;0.80;;
5147;SDS011;2592;48.140;7.614;2024-02-26T00:43:29;0.90;;;0.80;;
5147;SDS011;2592;48.140;7.614;2024-02-26T00:45:55;1.10;;;0.90;;
5147;SDS011;2592;48.140;7.614;2024-02-26T00:48:22;1.50;;;0.73;;
5147;SDS011;2592;48.140;7.614;2024-02-26T00:50:50;1.67;;;0.80;;
5147;SDS011;2592;48.140;7.614;2024-02-26T00:53:17;1.73;;;1.13;;
5147;SDS011;2592;48.140;7.614;2024-02-26T00:55:43;1.80;;;0.90;;
5147;SDS011;2592;48.140;7.614;2024-02-26T00:58:11;2.50;;;1.20;;
5147;SDS011;2592;48.140;7.614;2024-02-26T01:00:37;1.00;;;0.90;;
5147;SDS011;2592;48.140;7.614;2024-02-26T01:03:04;2.23;;;1.40;;
5147;SDS011;2592;48.140;7.614;2024-02-26T01:05:30;3.23;;;1.00;;
5147;SDS011;2592;48.140;7.614;2024-02-26T01:07:56;1.40;;;1.00;;
5147;SDS011;2592;48.140;7.614;2024-02-26T01:10:23;3.30;;;1.40;;
5147;SDS011;2592;48.140;7.614;2024-02-26T01:12:49;1.23;;;1.03;;
5147;SDS011;2592;48.140;7.614;2024-02-26T01:15:17;1.53;;;1.27;;
5147;SDS011;2592;48.140;7.614;2024-02-26T01:17:47;1.00;;;0.90;;
5147;SDS011;2592;48.140;7.614;2024-02-26T01:20:13;1.47;;;0.87;;
5147;SDS011;2592;48.140;7.614;2024-02-26T01:22:39;2.70;;;1.10;;
5147;SDS011;2592;48.140;7.614;2024-02-26T01:25:06;1.70;;;1.03;;
5147;SDS011;2592;48.140;7.614;2024-02-26T01:27:34;1.73;;;1.23;;
5147;SDS011;2592;48.140;7.614;2024-02-26T01:30:01;2.70;;;1.00;;
5147;SDS011;2592;48.140;7.614;2024-02-26T01:32:30;1.00;;;0.90;;
5147;SDS011;2592;48.140;7.614;2024-02-26T01:34:56;1.80;;;0.83;;
5147;SDS011;2592;48.140;7.614;2024-02-26T01:37:23;1.00;;;0.77;;
5147;SDS011;2592;48.140;7.614;2024-02-26T01:39:49;1.73;;;0.70;;
5147;SDS011;2592;48.140;7.614;2024-02-26T01:42:15;0.97;;;0.87;;
5147;SDS011;2592;48.140;7.614;2024-02-26T01:44:42;1.30;;;0.80;;
5147;SDS011;2592;48.140;7.614;2024-02-26T01:47:09;1.03;;;0.80;;
5147;SDS011;2592;48.140;7.614;2024-02-26T01:49:39;2.30;;;0.80;;
5147;SDS011;2592;48.140;7.614;2024-02-26T01:52:06;1.07;;;0.83;;
5147;SDS011;2592;48.140;7.614;2024-02-26T01:54:32;2.27;;;0.90;;
5147;SDS011;2592;48.140;7.614;2024-02-26T01:57:00;1.27;;;1.10;;
5147;SDS011;2592;48.140;7.614;2024-02-26T01:59:28;2.37;;;0.83;;
5147;SDS011;2592;48.140;7.614;2024-02-26T02:01:55;5.37;;;1.00;;
5147;SDS011;2592;48.140;7.614;2024-02-26T02:04:21;2.00;;;1.10;;
5147;SDS011;2592;48.140;7.614;2024-02-26T02:06:50;2.40;;;0.90;;
5147;SDS011;2592;48.140;7.614;2024-02-26T02:09:17;4.43;;;2.20;;
5147;SDS011;2592;48.140;7.614;2024-02-26T02:11:44;15.57;;;6.37;;
5147;SDS011;2592;48.140;7.614;2024-02-26T02:14:11;6.40;;;2.97;;
5147;SDS011;2592;48.140;7.614;2024-02-26T02:16:37;9.07;;;3.10;;
5147;SDS011;2592;48.140;7.614;2024-02-26T02:19:04;9.37;;;4.10;;
5147;SDS011;2592;48.140;7.614;2024-02-26T02:21:31;11.77;;;5.53;;
5147;SDS011;2592;48.140;7.614;2024-02-26T02:23:58;11.77;;;6.07;;
5147;SDS011;2592;48.140;7.614;2024-02-26T02:26:24;10.13;;;4.10;;
5147;SDS011;2592;48.140;7.614;2024-02-26T02:28:51;6.70;;;3.27;;
5147;SDS011;2592;48.140;7.614;2024-02-26T02:31:17;6.50;;;3.33;;
5147;SDS011;2592;48.140;7.614;2024-02-26T02:33:43;11.37;;;6.37;;
5147;SDS011;2592;48.140;7.614;2024-02-26T02:36:10;8.50;;;4.83;;
5147;SDS011;2592;48.140;7.614;2024-02-26T02:38:38;4.90;;;3.30;;
5147;SDS011;2592;48.140;7.614;2024-02-26T02:41:04;3.87;;;2.60;;
5147;SDS011;2592;48.140;7.614;2024-02-26T02:43:31;4.23;;;2.77;;
5147;SDS011;2592;48.140;7.614;2024-02-26T02:45:57;4.20;;;2.70;;
5147;SDS011;2592;48.140;7.614;2024-02-26T02:48:23;4.00;;;3.00;;
5147;SDS011;2592;48.140;7.614;2024-02-26T02:50:50;4.13;;;3.63;;
5147;SDS011;2592;48.140;7.614;2024-02-26T02:53:16;2.80;;;1.93;;
5147;SDS011;2592;48.140;7.614;2024-02-26T02:55:44;3.43;;;2.10;;
5147;SDS011;2592;48.140;7.614;2024-02-26T02:58:11;3.60;;;2.20;;
5147;SDS011;2592;48.140;7.614;2024-02-26T03:00:37;2.73;;;1.93;;
5147;SDS011;2592;48.140;7.614;2024-02-26T03:03:04;2.43;;;1.90;;
5147;SDS011;2592;48.140;7.614;2024-02-26T03:05:31;2.00;;;1.40;;
5147;SDS011;2592;48.140;7.614;2024-02-26T03:07:57;3.47;;;1.80;;
5147;SDS011;2592;48.140;7.614;2024-02-26T03:10:24;3.30;;;2.20;;
5147;SDS011;2592;48.140;7.614;2024-02-26T03:12:52;2.30;;;1.63;;
5147;SDS011;2592;48.140;7.614;2024-02-26T03:15:18;2.00;;;1.30;;
5147;SDS011;2592;48.140;7.614;2024-02-26T03:17:44;2.97;;;1.40;;
5147;SDS011;2592;48.140;7.614;2024-02-26T03:20:11;1.30;;;1.10;;
5147;SDS011;2592;48.140;7.614;2024-02-26T03:22:38;2.00;;;1.30;;
5147;SDS011;2592;48.140;7.614;2024-02-26T03:25:05;14.63;;;1.43;;
5147;SDS011;2592;48.140;7.614;2024-02-26T03:27:31;2.50;;;1.20;;
5147;SDS011;2592;48.140;7.614;2024-02-26T03:29:59;1.40;;;1.13;;
5147;SDS011;2592;48.140;7.614;2024-02-26T03:32:25;2.10;;;1.30;;
5147;SDS011;2592;48.140;7.614;2024-02-26T03:34:51;1.73;;;1.20;;
5147;SDS011;2592;48.140;7.614;2024-02-26T03:37:19;1.80;;;1.53;;
5147;SDS011;2592;48.140;7.614;2024-02-26T03:39:45;1.40;;;1.00;;
5147;SDS011;2592;48.140;7.614;2024-02-26T03:42:12;1.33;;;1.10;;
5147;SDS011;2592;48.140;7.614;2024-02-26T03:44:38;1.73;;;1.17;;
5147;SDS011;2592;48.140;7.614;2024-02-26T03:47:06;1.70;;;1.60;;
5147;SDS011;2592;48.140;7.614;2024-02-26T03:49:32;1.93;;;1.20;;
5147;SDS011;2592;48.140;7.614;2024-02-26T03:51:58;2.07;;;1.40;;
5147;SDS011;2592;48.140;7.614;2024-02-26T03:54:25;1.67;;;1.30;;
5147;SDS011;2592;48.140;7.614;2024-02-26T03:56:51;1.53;;;1.30;;
5147;SDS011;2592;48.140;7.614;2024-02-26T03:59:18;1.77;;;1.00;;
5147;SDS011;2592;48.140;7.614;2024-02-26T04:01:45;1.07;;;0.97;;
5147;SDS011;2592;48.140;7.614;2024-02-26T04:04:13;2.00;;;1.10;;
5147;SDS011;2592;48.140;7.614;2024-02-26T04:06:39;1.33;;;1.23;;
5147;SDS011;2592;48.140;7.614;2024-02-26T04:09:05;1.83;;;1.10;;
5147;SDS011;2592;48.140;7.614;2024-02-26T04:11:32;2.27;;;1.50;;
5147;SDS011;2592;48.140;7.614;2024-02-26T04:13:58;1.20;;;1.10;;
5147;SDS011;2592;48.140;7.614;2024-02-26T04:16:25;1.33;;;0.97;;
5147;SDS011;2592;48.140;7.614;2024-02-26T04:18:51;1.80;;;1.67;;
5147;SDS011;2592;48.140;7.614;2024-02-26T04:21:19;4.10;;;3.03;;
5147;SDS011;2592;48.140;7.614;2024-02-26T04:23:46;3.27;;;2.97;;
5147;SDS011;2592;48.140;7.614;2024-02-26T04:26:14;5.07;;;3.10;;
5147;SDS011;2592;48.140;7.614;2024-02-26T04:28:40;7.77;;;3.30;;
5147;SDS011;2592;48.140;7.614;2024-02-26T04:31:07;7.50;;;3.20;;
5147;SDS011;2592;48.140;7.614;2024-02-26T04:33:33;6.83;;;2.90;;
5147;SDS011;2592;48.140;7.614;2024-02-26T04:36:00;6.00;;;3.23;;
5147;SDS011;2592;48.140;7.614;2024-02-26T04:38:28;5.80;;;3.00;;
5147;SDS011;2592;48.140;7.614;2024-02-26T04:40:54;3.10;;;1.80;;
5147;SDS011;2592;48.140;7.614;2024-02-26T04:43:20;3.23;;;2.10;;
5147;SDS011;2592;48.140;7.614;2024-02-26T04:45:47;4.23;;;1.87;;
5147;SDS011;2592;48.140;7.614;2024-02-26T04:48:13;4.90;;;2.57;;
5147;SDS011;2592;48.140;7.614;2024-02-26T04:50:39;3.37;;;2.93;;
5147;SDS011;2592;48.140;7.614;2024-02-26T04:53:06;2.77;;;2.20;;
5147;SDS011;2592;48.140;7.614;2024-02-26T04:55:33;3.20;;;1.90;;
5147;SDS011;2592;48.140;7.614;2024-02-26T04:57:59;2.80;;;1.70;;
5147;SDS011;2592;48.140;7.614;2024-02-26T05:00:25;4.47;;;3.30;;
5147;SDS011;2592;48.140;7.614;2024-02-26T05:02:52;5.20;;;4.10;;
5147;SDS011;2592;48.140;7.614;2024-02-26T05:05:18;3.00;;;1.97;;
5147;SDS011;2592;48.140;7.614;2024-02-26T05:07:45;3.10;;;1.90;;
5147;SDS011;2592;48.140;7.614;2024-02-26T05:10:11;2.80;;;1.73;;
5147;SDS011;2592;48.140;7.614;2024-02-26T05:12:39;2.10;;;1.80;;
5147;SDS011;2592;48.140;7.614;2024-02-26T05:15:08;4.27;;;1.83;;
5147;SDS011;2592;48.140;7.614;2024-02-26T05:17:34;3.90;;;2.13;;
5147;SDS011;2592;48.140;7.614;2024-02-26T05:20:00;1.87;;;1.53;;
5147;SDS011;2592;48.140;7.614;2024-02-26T05:22:27;2.77;;;2.00;;
5147;SDS011;2592;48.140;7.614;2024-02-26T05:24:53;2.40;;;1.50;;
5147;SDS011;2592;48.140;7.614;2024-02-26T05:27:20;2.50;;;2.07;;
5147;SDS011;2592;48.140;7.614;2024-02-26T05:29:47;2.47;;;2.27;;
5147;SDS011;2592;48.140;7.614;2024-02-26T05:32:14;5.97;;;3.80;;
5147;SDS011;2592;48.140;7.614;2024-02-26T05:34:40;4.50;;;4.10;;
5147;SDS011;2592;48.140;7.614;2024-02-26T05:37:07;7.27;;;3.40;;
5147;SDS011;2592;48.140;7.614;2024-02-26T05:39:33;2.80;;;2.50;;
5147;SDS011;2592;48.140;7.614;2024-02-26T05:42:00;4.40;;;4.00;;
5147;SDS011;2592;48.140;7.614;2024-02-26T05:44:26;3.13;;;2.83;;
5147;SDS011;2592;48.140;7.614;2024-02-26T05:46:54;2.70;;;2.50;;
5147;SDS011;2592;48.140;7.614;2024-02-26T05:49:21;3.13;;;2.83;;
5147;SDS011;2592;48.140;7.614;2024-02-26T05:51:48;3.23;;;2.60;;
5147;SDS011;2592;48.140;7.614;2024-02-26T05:54:14;4.20;;;2.40;;
5147;SDS011;2592;48.140;7.614;2024-02-26T05:56:40;2.50;;;1.70;;
5147;SDS011;2592;48.140;7.614;2024-02-26T05:59:07;3.87;;;2.50;;
5147;SDS011;2592;48.140;7.614;2024-02-26T06:01:34;3.37;;;2.40;;
5147;SDS011;2592;48.140;7.614;2024-02-26T06:04:01;2.70;;;2.50;;
5147;SDS011;2592;48.140;7.614;2024-02-26T06:06:28;6.00;;;2.03;;
5147;SDS011;2592;48.140;7.614;2024-02-26T06:08:54;2.27;;;1.80;;
5147;SDS011;2592;48.140;7.614;2024-02-26T06:11:20;4.00;;;2.33;;
5147;SDS011;2592;48.140;7.614;2024-02-26T06:13:47;3.73;;;2.73;;
5147;SDS011;2592;48.140;7.614;2024-02-26T06:16:14;4.57;;;3.13;;
5147;SDS011;2592;48.140;7.614;2024-02-26T06:18:40;2.57;;;2.07;;
5147;SDS011;2592;48.140;7.614;2024-02-26T06:21:10;5.47;;;4.97;;
5147;SDS011;2592;48.140;7.614;2024-02-26T06:23:36;6.30;;;3.50;;
5147;SDS011;2592;48.140;7.614;2024-02-26T06:26:03;2.83;;;2.40;;
5147;SDS011;2592;48.140;7.614;2024-02-26T06:28:29;5.30;;;2.30;;
5147;SDS011;2592;48.140;7.614;2024-02-26T06:30:58;3.87;;;3.03;;
5147;SDS011;2592;48.140;7.614;2024-02-26T06:33:24;4.73;;;2.90;;
5147;SDS011;2592;48.140;7.614;2024-02-26T06:35:50;3.60;;;2.17;;
5147;SDS011;2592;48.140;7.614;2024-02-26T06:38:18;4.33;;;2.57;;
5147;SDS011;2592;48.140;7.614;2024-02-26T06:40:45;3.50;;;2.90;;
5147;SDS011;2592;48.140;7.614;2024-02-26T06:43:12;9.63;;;3.57;;
5147;SDS011;2592;48.140;7.614;2024-02-26T06:45:38;5.70;;;4.00;;
5147;SDS011;2592;48.140;7.614;2024-02-26T06:48:05;6.47;;;5.40;;
5147;SDS011;2592;48.140;7.614;2024-02-26T06:50:31;10.97;;;7.70;;
5147;SDS011;2592;48.140;7.614;2024-02-26T06:52:58;5.67;;;4.60;;
5147;SDS011;2592;48.140;7.614;2024-02-26T06:55:25;5.97;;;3.07;;
5147;SDS011;2592;48.140;7.614;2024-02-26T06:57:52;5.53;;;3.20;;
5147;SDS011;2592;48.140;7.614;2024-02-26T07:00:18;7.43;;;4.23;;
5147;SDS011;2592;48.140;7.614;2024-02-26T07:02:45;6.07;;;3.50;;
5147;SDS011;2592;48.140;7.614;2024-02-26T07:05:11;12.97;;;6.13;;
5147;SDS011;2592;48.140;7.614;2024-02-26T07:07:37;10.13;;;4.77;;
5147;SDS011;2592;48.140;7.614;2024-02-26T07:10:04;7.80;;;4.37;;
5147;SDS011;2592;48.140;7.614;2024-02-26T07:12:32;9.40;;;4.60;;
5147;SDS011;2592;48.140;7.614;2024-02-26T07:14:59;4.77;;;3.00;;
5147;SDS011;2592;48.140;7.614;2024-02-26T07:17:25;3.77;;;2.70;;
5147;SDS011;2592;48.140;7.614;2024-02-26T07:19:52;3.43;;;2.33;;
5147;SDS011;2592;48.140;7.614;2024-02-26T07:22:18;5.73;;;3.53;;
5147;SDS011;2592;48.140;7.614;2024-02-26T07:24:44;3.70;;;2.57;;
5147;SDS011;2592;48.140;7.614;2024-02-26T07:27:11;2.50;;;2.30;;
5147;SDS011;2592;48.140;7.614;2024-02-26T07:29:39;3.83;;;2.80;;
5147;SDS011;2592;48.140;7.614;2024-02-26T07:32:05;2.77;;;2.50;;
5147;SDS011;2592;48.140;7.614;2024-02-26T07:34:32;5.13;;;2.33;;
5147;SDS011;2592;48.140;7.614;2024-02-26T07:36:58;3.10;;;2.50;;
5147;SDS011;2592;48.140;7.614;2024-02-26T07:39:25;2.90;;;2.70;;
5147;SDS011;2592;48.140;7.614;2024-02-26T07:41:51;4.97;;;2.67;;
5147;SDS011;2592;48.140;7.614;2024-02-26T07:44:18;3.63;;;3.10;;
5147;SDS011;2592;48.140;7.614;2024-02-26T07:46:45;3.80;;;3.20;;
5147;SDS011;2592;48.140;7.614;2024-02-26T07:49:12;5.07;;;2.80;;
5147;SDS011;2592;48.140;7.614;2024-02-26T07:51:38;5.17;;;3.23;;
5147;SDS011;2592;48.140;7.614;2024-02-26T07:54:04;4.67;;;3.07;;
5147;SDS011;2592;48.140;7.614;2024-02-26T07:56:31;3.50;;;3.20;;
5147;SDS011;2592;48.140;7.614;2024-02-26T07:58:57;4.10;;;3.03;;
5147;SDS011;2592;48.140;7.614;2024-02-26T08:01:24;3.97;;;3.57;;
5147;SDS011;2592;48.140;7.614;2024-02-26T08:03:52;10.77;;;4.13;;
5147;SDS011;2592;48.140;7.614;2024-02-26T08:06:19;6.30;;;3.97;;
5147;SDS011;2592;48.140;7.614;2024-02-26T08:08:45;5.70;;;4.10;;
5147;SDS011;2592;48.140;7.614;2024-02-26T08:11:12;4.83;;;4.00;;
5147;SDS011;2592;48.140;7.614;2024-02-26T08:13:40;3.97;;;3.57;;
5147;SDS011;2592;48.140;7.614;2024-02-26T08:16:06;6.00;;;3.80;;
5147;SDS011;2592;48.140;7.614;2024-02-26T08:18:32;3.70;;;3.40;;
5147;SDS011;2592;48.140;7.614;2024-02-26T08:21:00;3.33;;;3.03;;
5147;SDS011;2592;48.140;7.614;2024-02-26T08:23:27;4.70;;;3.23;;
5147;SDS011;2592;48.140;7.614;2024-02-26T08:25:54;3.90;;;3.07;;
5147;SDS011;2592;48.140;7.614;2024-02-26T08:28:20;4.00;;;3.30;;
5147;SDS011;2592;48.140;7.614;2024-02-26T08:30:46;4.13;;;3.73;;
5147;SDS011;2592;48.140;7.614;2024-02-26T08:33:13;4.53;;;3.40;;
5147;SDS011;2592;48.140;7.614;2024-02-26T08:35:40;6.13;;;4.30;;
5147;SDS011;2592;48.140;7.614;2024-02-26T08:38:08;6.43;;;4.07;;
5147;SDS011;2592;48.140;7.614;2024-02-26T08:40:34;6.70;;;4.60;;
5147;SDS011;2592;48.140;7.614;2024-02-26T08:43:00;4.37;;;3.90;;
5147;SDS011;2592;48.140;7.614;2024-02-26T08:45:27;5.20;;;4.30;;
5147;SDS011;2592;48.140;7.614;2024-02-26T08:47:53;5.50;;;3.83;;
5147;SDS011;2592;48.140;7.614;2024-02-26T08:50:19;4.50;;;4.10;;
5147;SDS011;2592;48.140;7.614;2024-02-26T08:52:46;4.30;;;3.90;;
5147;SDS011;2592;48.140;7.614;2024-02-26T08:55:17;6.23;;;4.37;;
5147;SDS011;2592;48.140;7.614;2024-02-26T08:57:43;5.50;;;4.30;;
5147;SDS011;2592;48.140;7.614;2024-02-26T09:00:10;6.43;;;4.20;;
5147;SDS011;2592;48.140;7.614;2024-02-26T09:02:37;3.80;;;3.40;;
5147;SDS011;2592;48.140;7.614;2024-02-26T09:05:04;5.63;;;3.97;;
5147;SDS011;2592;48.140;7.614;2024-02-26T09:07:31;3.83;;;3.43;;
5147;SDS011;2592;48.140;7.614;2024-02-26T09:09:58;6.20;;;3.57;;
5147;SDS011;2592;48.140;7.614;2024-02-26T09:12:26;7.67;;;4.40;;
5147;SDS011;2592;48.140;7.614;2024-02-26T09:14:53;6.80;;;3.50;;
5147;SDS011;2592;48.140;7.614;2024-02-26T09:17:21;5.73;;;3.80;;
5147;SDS011;2592;48.140;7.614;2024-02-26T09:19:47;8.00;;;3.13;;
5147;SDS011;2592;48.140;7.614;2024-02-26T09:22:14;5.33;;;3.67;;
5147;SDS011;2592;48.140;7.614;2024-02-26T09:24:40;4.43;;;3.13;;
5147;SDS011;2592;48.140;7.614;2024-02-26T09:27:06;3.27;;;2.83;;
5147;SDS011;2592;48.140;7.614;2024-02-26T09:29:34;5.50;;;3.30;;
5147;SDS011;2592;48.140;7.614;2024-02-26T09:32:01;6.20;;;2.83;;
5147;SDS011;2592;48.140;7.614;2024-02-26T09:34:27;4.63;;;2.50;;
5147;SDS011;2592;48.140;7.614;2024-02-26T09:36:54;13.23;;;2.73;;
5147;SDS011;2592;48.140;7.614;2024-02-26T09:39:20;11.07;;;2.97;;
5147;SDS011;2592;48.140;7.614;2024-02-26T09:41:47;7.83;;;3.53;;
5147;SDS011;2592;48.140;7.614;2024-02-26T09:44:13;7.20;;;4.60;;
5147;SDS011;2592;48.140;7.614;2024-02-26T09:46:43;10.37;;;4.67;;
5147;SDS011;2592;48.140;7.614;2024-02-26T09:49:10;9.07;;;5.60;;
5147;SDS011;2592;48.140;7.614;2024-02-26T09:51:38;6.40;;;3.47;;
5147;SDS011;2592;48.140;7.614;2024-02-26T09:54:04;8.30;;;3.20;;
5147;SDS011;2592;48.140;7.614;2024-02-26T09:56:33;11.07;;;2.60;;
5147;SDS011;2592;48.140;7.614;2024-02-26T09:58:59;5.40;;;2.40;;
5147;SDS011;2592;48.140;7.614;2024-02-26T10:01:27;4.63;;;2.97;;
5147;SDS011;2592;48.140;7.614;2024-02-26T10:03:58;3.80;;;2.17;;
5147;SDS011;2592;48.140;7.614;2024-02-26T10:06:26;3.87;;;2.03;;
5147;SDS011;2592;48.140;7.614;2024-02-26T10:08:52;5.97;;;1.93;;
5147;SDS011;2592;48.140;7.614;2024-02-26T10:11:19;4.57;;;2.33;;
5147;SDS011;2592;48.140;7.614;2024-02-26T10:13:46;6.57;;;3.03;;
5147;SDS011;2592;48.140;7.614;2024-02-26T10:16:12;12.70;;;4.10;;
5147;SDS011;2592;48.140;7.614;2024-02-26T10:18:45;7.43;;;3.30;;
5147;SDS011;2592;48.140;7.614;2024-02-26T10:21:13;8.00;;;4.00;;
5147;SDS011;2592;48.140;7.614;2024-02-26T10:23:41;5.60;;;3.53;;
5147;SDS011;2592;48.140;7.614;2024-02-26T10:26:08;7.80;;;4.40;;
5147;SDS011;2592;48.140;7.614;2024-02-26T10:28:36;4.90;;;2.60;;
5147;SDS011;2592;48.140;7.614;2024-02-26T10:31:03;5.80;;;2.97;;
5147;SDS011;2592;48.140;7.614;2024-02-26T10:33:29;10.07;;;4.13;;
5147;SDS011;2592;48.140;7.614;2024-02-26T10:35:56;7.57;;;4.00;;
5147;SDS011;2592;48.140;7.614;2024-02-26T10:38:24;6.33;;;3.27;;
5147;SDS011;2592;48.140;7.614;2024-02-26T10:40:50;5.10;;;3.27;;
5147;SDS011;2592;48.140;7.614;2024-02-26T10:43:17;9.77;;;4.53;;
5147;SDS011;2592;48.140;7.614;2024-02-26T10:45:43;6.83;;;3.90;;
5147;SDS011;2592;48.140;7.614;2024-02-26T10:48:10;19.60;;;8.00;;
5147;SDS011;2592;48.140;7.614;2024-02-26T10:50:37;13.20;;;5.73;;
5147;SDS011;2592;48.140;7.614;2024-02-26T10:53:05;5.60;;;3.20;;
5147;SDS011;2592;48.140;7.614;2024-02-26T10:55:34;4.50;;;3.20;;
5147;SDS011;2592;48.140;7.614;2024-02-26T10:58:02;5.30;;;3.10;;
5147;SDS011;2592;48.140;7.614;2024-02-26T11:00:29;5.40;;;2.03;;
5147;SDS011;2592;48.140;7.614;2024-02-26T11:02:56;6.20;;;1.57;;
5147;SDS011;2592;48.140;7.614;2024-02-26T11:05:23;3.60;;;2.23;;
5147;SDS011;2592;48.140;7.614;2024-02-26T11:07:50;5.07;;;2.07;;
5147;SDS011;2592;48.140;7.614;2024-02-26T11:10:18;6.20;;;1.70;;
5147;SDS011;2592;48.140;7.614;2024-02-26T11:12:46;4.97;;;2.07;;
5147;SDS011;2592;48.140;7.614;2024-02-26T11:15:14;4.47;;;1.67;;
5147;SDS011;2592;48.140;7.614;2024-02-26T11:17:40;5.80;;;2.57;;
5147;SDS011;2592;48.140;7.614;2024-02-26T11:20:09;5.67;;;1.80;;
5147;SDS011;2592;48.140;7.614;2024-02-26T11:22:37;9.17;;;2.57;;
5147;SDS011;2592;48.140;7.614;2024-02-26T11:25:04;13.43;;;2.27;;
5147;SDS011;2592;48.140;7.614;2024-02-26T11:27:32;5.30;;;1.80;;
5147;SDS011;2592;48.140;7.614;2024-02-26T11:30:01;4.90;;;1.87;;
5147;SDS011;2592;48.140;7.614;2024-02-26T11:32:30;12.73;;;2.27;;
5147;SDS011;2592;48.140;7.614;2024-02-26T11:34:56;7.27;;;1.43;;
5147;SDS011;2592;48.140;7.614;2024-02-26T11:37:24;8.53;;;3.33;;
5147;SDS011;2592;48.140;7.614;2024-02-26T11:39:51;13.47;;;3.00;;
5147;SDS011;2592;48.140;7.614;2024-02-26T11:42:17;4.33;;;2.70;;
5147;SDS011;2592;48.140;7.614;2024-02-26T11:44:48;6.53;;;1.87;;
5147;SDS011;2592;48.140;7.614;2024-02-26T11:47:18;9.33;;;2.77;;
5147;SDS011;2592;48.140;7.614;2024-02-26T11:49:45;13.60;;;3.87;;
5147;SDS011;2592;48.140;7.614;2024-02-26T11:52:12;5.37;;;2.53;;
5147;SDS011;2592;48.140;7.614;2024-02-26T11:54:40;3.53;;;1.60;;
5147;SDS011;2592;48.140;7.614;2024-02-26T11:57:25;2.70;;;1.50;;
5147;SDS011;2592;48.140;7.614;2024-02-26T11:59:52;5.70;;;1.70;;
5147;SDS011;2592;48.140;7.614;2024-02-26T12:05:08;1.77;;;1.10;;
5147;SDS011;2592;48.140;7.614;2024-02-26T12:07:37;2.17;;;1.10;;
5147;SDS011;2592;48.140;7.614;2024-02-26T12:12:59;4.03;;;1.53;;
5147;SDS011;2592;48.140;7.614;2024-02-26T12:15:30;1.50;;;1.00;;
5147;SDS011;2592;48.140;7.614;2024-02-26T12:17:57;1.67;;;0.90;;
5147;SDS011;2592;48.140;7.614;2024-02-26T12:20:25;1.27;;;0.93;;
5147;SDS011;2592;48.140;7.614;2024-02-26T12:22:52;2.50;;;1.30;;
5147;SDS011;2592;48.140;7.614;2024-02-26T12:25:23;0.97;;;0.73;;
5147;SDS011;2592;48.140;7.614;2024-02-26T12:27:50;2.93;;;1.00;;
5147;SDS011;2592;48.140;7.614;2024-02-26T12:30:17;5.03;;;1.33;;
5147;SDS011;2592;48.140;7.614;2024-02-26T12:32:44;4.93;;;1.57;;
5147;SDS011;2592;48.140;7.614;2024-02-26T12:35:10;5.63;;;1.57;;
5147;SDS011;2592;48.140;7.614;2024-02-26T12:37:39;2.80;;;1.57;;
5147;SDS011;2592;48.140;7.614;2024-02-26T12:40:05;3.10;;;1.80;;
5147;SDS011;2592;48.140;7.614;2024-02-26T12:42:33;1.57;;;1.00;;
5147;SDS011;2592;48.140;7.614;2024-02-26T12:45:04;2.37;;;1.23;;
5147;SDS011;2592;48.140;7.614;2024-02-26T12:47:34;2.93;;;1.20;;
5147;SDS011;2592;48.140;7.614;2024-02-26T12:50:01;3.00;;;1.60;;
5147;SDS011;2592;48.140;7.614;2024-02-26T12:52:29;3.57;;;1.33;;
5147;SDS011;2592;48.140;7.614;2024-02-26T12:54:56;1.90;;;1.10;;
5147;SDS011;2592;48.140;7.614;2024-02-26T12:57:23;1.87;;;1.43;;
5147;SDS011;2592;48.140;7.614;2024-02-26T12:59:50;1.73;;;1.20;;
5147;SDS011;2592;48.140;7.614;2024-02-26T13:02:17;3.70;;;1.50;;
5147;SDS011;2592;48.140;7.614;2024-02-26T13:04:43;2.00;;;0.97;;
5147;SDS011;2592;48.140;7.614;2024-02-26T13:07:10;6.67;;;1.07;;
5147;SDS011;2592;48.140;7.614;2024-02-26T13:09:36;1.50;;;1.10;;
5147;SDS011;2592;48.140;7.614;2024-02-26T13:12:05;2.03;;;1.10;;
5147;SDS011;2592;48.140;7.614;2024-02-26T13:14:31;2.60;;;1.00;;
5147;SDS011;2592;48.140;7.614;2024-02-26T13:16:59;2.00;;;1.00;;
5147;SDS011;2592;48.140;7.614;2024-02-26T13:19:25;3.63;;;1.10;;
5147;SDS011;2592;48.140;7.614;2024-02-26T13:21:52;2.97;;;1.10;;
5147;SDS011;2592;48.140;7.614;2024-02-26T13:24:19;4.47;;;1.30;;
5147;SDS011;2592;48.140;7.614;2024-02-26T13:26:47;2.97;;;1.23;;
5147;SDS011;2592;48.140;7.614;2024-02-26T13:29:18;2.70;;;1.20;;
5147;SDS011;2592;48.140;7.614;2024-02-26T13:31:44;2.80;;;1.03;;
5147;SDS011;2592;48.140;7.614;2024-02-26T13:34:11;2.07;;;1.00;;
5147;SDS011;2592;48.140;7.614;2024-02-26T13:36:38;1.40;;;1.00;;
5147;SDS011;2592;48.140;7.614;2024-02-26T13:39:04;2.40;;;0.97;;
5147;SDS011;2592;48.140;7.614;2024-02-26T13:41:31;1.97;;;1.00;;
5147;SDS011;2592;48.140;7.614;2024-02-26T13:43:57;1.90;;;1.30;;
5147;SDS011;2592;48.140;7.614;2024-02-26T13:46:25;2.07;;;1.27;;
5147;SDS011;2592;48.140;7.614;2024-02-26T13:48:51;2.30;;;1.30;;
5147;SDS011;2592;48.140;7.614;2024-02-26T13:51:19;1.30;;;1.10;;
5147;SDS011;2592;48.140;7.614;2024-02-26T13:53:46;1.90;;;1.07;;
5147;SDS011;2592;48.140;7.614;2024-02-26T13:56:12;1.43;;;1.00;;
5147;SDS011;2592;48.140;7.614;2024-02-26T13:58:39;2.07;;;1.13;;
5147;SDS011;2592;48.140;7.614;2024-02-26T14:01:05;1.70;;;1.30;;
5147;SDS011;2592;48.140;7.614;2024-02-26T14:03:33;1.93;;;1.10;;
5147;SDS011;2592;48.140;7.614;2024-02-26T14:05:59;2.40;;;1.40;;
5147;SDS011;2592;48.140;7.614;2024-02-26T14:08:25;2.27;;;1.43;;
5147;SDS011;2592;48.140;7.614;2024-02-26T14:10:52;3.43;;;2.20;;
5147;SDS011;2592;48.140;7.614;2024-02-26T14:13:18;1.63;;;1.33;;
5147;SDS011;2592;48.140;7.614;2024-02-26T14:15:45;2.40;;;1.57;;
5147;SDS011;2592;48.140;7.614;2024-02-26T14:18:12;4.07;;;1.80;;
5147;SDS011;2592;48.140;7.614;2024-02-26T14:20:40;3.00;;;1.47;;
5147;SDS011;2592;48.140;7.614;2024-02-26T14:23:06;2.30;;;1.00;;
5147;SDS011;2592;48.140;7.614;2024-02-26T14:25:33;1.60;;;1.10;;
5147;SDS011;2592;48.140;7.614;2024-02-26T14:27:59;1.77;;;1.33;;
5147;SDS011;2592;48.140;7.614;2024-02-26T14:30:26;1.37;;;1.00;;
5147;SDS011;2592;48.140;7.614;2024-02-26T14:32:52;2.50;;;1.00;;
5147;SDS011;2592;48.140;7.614;2024-02-26T14:35:19;2.27;;;1.20;;
5147;SDS011;2592;48.140;7.614;2024-02-26T14:37:47;7.93;;;0.90;;
5147;SDS011;2592;48.140;7.614;2024-02-26T14:40:14;4.30;;;1.07;;
5147;SDS011;2592;48.140;7.614;2024-02-26T14:42:40;2.10;;;1.20;;
5147;SDS011;2592;48.140;7.614;2024-02-26T14:45:07;2.60;;;1.40;;
5147;SDS011;2592;48.140;7.614;2024-02-26T14:47:34;1.30;;;1.00;;
5147;SDS011;2592;48.140;7.614;2024-02-26T14:50:00;4.70;;;1.10;;
5147;SDS011;2592;48.140;7.614;2024-02-26T14:52:27;1.50;;;1.10;;
5147;SDS011;2592;48.140;7.614;2024-02-26T14:54:55;2.10;;;1.43;;
5147;SDS011;2592;48.140;7.614;2024-02-26T14:57:22;3.90;;;1.30;;
5147;SDS011;2592;48.140;7.614;2024-02-26T14:59:48;2.20;;;1.40;;
5147;SDS011;2592;48.140;7.614;2024-02-26T15:02:15;1.60;;;0.90;;
5147;SDS011;2592;48.140;7.614;2024-02-26T15:04:41;1.93;;;1.30;;
5147;SDS011;2592;48.140;7.614;2024-02-26T15:07:08;1.87;;;1.27;;
5147;SDS011;2592;48.140;7.614;2024-02-26T15:09:34;2.37;;;1.70;;
5147;SDS011;2592;48.140;7.614;2024-02-26T15:12:02;2.27;;;1.40;;
5147;SDS011;2592;48.140;7.614;2024-02-26T15:14:31;3.20;;;2.30;;
5147;SDS011;2592;48.140;7.614;2024-02-26T15:16:58;4.37;;;1.90;;
5147;SDS011;2592;48.140;7.614;2024-02-26T15:19:24;1.87;;;1.20;;